Portada
METAR-TAF:

METAR-TAF

Aeropuertos :

Tsushima, Japón

latitud: 34-17N, longitud: 129-20E, altitud: 63 m

Observación

El informe se hizo hace 1 hora y 1 minutos, a las 06:00 UTC
Viento 11 kt del oeste, variando entre suroeste y oeste-noroeste
Temperatura 24°C
Humedad 31%
Presión 1008 hPa
Visibilidad 10 km o más
sin nubes por debajo de 1500 m y sin presencia de cumulonimbus.

METAR: RJDT 280600Z 26011KT 220V300 CAVOK 24/06 Q1008

Hora: 16:01 (07:01 UTC)


TAF: falta

Observaciones y pronósticos meteorológicos de más de 4000 aeropuertos (mensajes METAR y TAF).

Los puntos amarillos y rojos representan las estaciones disponibles.

Ponga el ratón en el punto deseado para ver el nombre de la estación.

Haga clic para ver las observaciones y los pronósticos meteorológicos.

Para cambiar el mapa : haga clic en los botones verdes con una cruz de color negro para hacer un zoom, en el botón verde con un guión para alejar o en las flechas verdes para mapas adyacentes.


METAR-TAF: